Den Helder, Netherlands
Current Conditions -  °F | °C
As of 4:25 AM on Saturday 22 Nov 2014 (Local Time) from EHKD Reporting Station
Haze Haze  
Wind Chill: 36°   Ceiling: 8200
Heat Index: 43°   Visibility: 6mi
Dew Point: 39°   Wind: 14mph
Humidity: 87%   Direction: 110°ESE
Pressure: 30.03"   Gusts: NA
Location:  52.96°N, 4.76°E
Report Text: EHKD 220325Z AUTO 11012KT 9000 BR BKN082 BKN090 OVC120 06/04 Q1017 BLU
Loading
Personal Weather Stations






























Interactive Weather Map New forecast layout! Learn more

10-Day Weather Forecast

Advertisements
Track Severe Weather on mobile